sensor_id;sensor_type;location;lat;lon;timestamp;temperature;humidity
28460;DHT22;32528;45.712;9.192;2022-09-27T00:01:33;15.20;99.90
28460;DHT22;32528;45.712;9.192;2022-09-27T00:03:34;15.20;99.90
28460;DHT22;32528;45.712;9.192;2022-09-27T00:05:35;15.20;99.90
28460;DHT22;32528;45.712;9.192;2022-09-27T00:07:36;15.20;99.90
28460;DHT22;32528;45.712;9.192;2022-09-27T00:09:37;15.20;99.90
28460;DHT22;32528;45.712;9.192;2022-09-27T00:11:39;15.20;99.90
28460;DHT22;32528;45.712;9.192;2022-09-27T00:13:42;15.20;99.90
28460;DHT22;32528;45.712;9.192;2022-09-27T00:15:42;15.30;99.90
28460;DHT22;32528;45.712;9.192;2022-09-27T00:17:43;15.30;99.90
28460;DHT22;32528;45.712;9.192;2022-09-27T00:19:44;15.20;99.90
28460;DHT22;32528;45.712;9.192;2022-09-27T00:21:45;15.10;99.90
28460;DHT22;32528;45.712;9.192;2022-09-27T00:23:47;15.10;99.90
28460;DHT22;32528;45.712;9.192;2022-09-27T00:25:56;15.10;99.90
28460;DHT22;32528;45.712;9.192;2022-09-27T00:27:57;15.10;99.90
28460;DHT22;32528;45.712;9.192;2022-09-27T00:29:58;15.10;99.90
28460;DHT22;32528;45.712;9.192;2022-09-27T00:31:59;15.10;99.90
28460;DHT22;32528;45.712;9.192;2022-09-27T00:34:00;15.00;99.90
28460;DHT22;32528;45.712;9.192;2022-09-27T00:36:04;15.10;99.90
28460;DHT22;32528;45.712;9.192;2022-09-27T00:38:05;15.10;99.90
28460;DHT22;32528;45.712;9.192;2022-09-27T00:40:06;15.10;99.90
28460;DHT22;32528;45.712;9.192;2022-09-27T00:42:09;15.00;99.90
28460;DHT22;32528;45.712;9.192;2022-09-27T00:46:39;15.10;99.90
28460;DHT22;32528;45.712;9.192;2022-09-27T00:48:41;15.10;99.90
28460;DHT22;32528;45.712;9.192;2022-09-27T00:50:42;15.10;99.90
28460;DHT22;32528;45.712;9.192;2022-09-27T00:52:46;15.10;99.90
28460;DHT22;32528;45.712;9.192;2022-09-27T00:54:49;15.10;99.90
28460;DHT22;32528;45.712;9.192;2022-09-27T00:56:51;15.10;99.90
28460;DHT22;32528;45.712;9.192;2022-09-27T00:58:55;15.10;99.90
28460;DHT22;32528;45.712;9.192;2022-09-27T01:00:58;15.10;99.90
28460;DHT22;32528;45.712;9.192;2022-09-27T01:02:59;15.10;99.90
28460;DHT22;32528;45.712;9.192;2022-09-27T01:05:00;15.10;99.90
28460;DHT22;32528;45.712;9.192;2022-09-27T01:07:01;15.10;99.90
28460;DHT22;32528;45.712;9.192;2022-09-27T01:09:02;15.00;99.90
28460;DHT22;32528;45.712;9.192;2022-09-27T01:13:19;14.90;99.90
28460;DHT22;32528;45.712;9.192;2022-09-27T01:15:56;14.90;99.90
28460;DHT22;32528;45.712;9.192;2022-09-27T01:21:58;14.90;99.90
28460;DHT22;32528;45.712;9.192;2022-09-27T01:26:41;14.90;99.90
28460;DHT22;32528;45.712;9.192;2022-09-27T01:30:47;14.90;99.90
28460;DHT22;32528;45.712;9.192;2022-09-27T01:35:09;14.80;99.90
28460;DHT22;32528;45.712;9.192;2022-09-27T01:42:01;14.70;99.90
28460;DHT22;32528;45.712;9.192;2022-09-27T01:44:22;14.80;99.90
28460;DHT22;32528;45.712;9.192;2022-09-27T01:46:39;14.70;99.90
28460;DHT22;32528;45.712;9.192;2022-09-27T01:49:03;14.70;99.90
28460;DHT22;32528;45.712;9.192;2022-09-27T01:51:06;14.70;99.90
28460;DHT22;32528;45.712;9.192;2022-09-27T01:53:11;14.70;99.90
28460;DHT22;32528;45.712;9.192;2022-09-27T01:55:32;14.70;99.90
28460;DHT22;32528;45.712;9.192;2022-09-27T02:00:10;14.70;99.90
28460;DHT22;32528;45.712;9.192;2022-09-27T02:02:15;14.70;99.90
28460;DHT22;32528;45.712;9.192;2022-09-27T02:04:39;14.70;99.90
28460;DHT22;32528;45.712;9.192;2022-09-27T02:06:49;14.70;99.90
28460;DHT22;32528;45.712;9.192;2022-09-27T02:11:13;14.70;99.90
28460;DHT22;32528;45.712;9.192;2022-09-27T02:13:28;14.70;99.90
28460;DHT22;32528;45.712;9.192;2022-09-27T02:16:06;14.60;99.90
28460;DHT22;32528;45.712;9.192;2022-09-27T02:18:17;14.50;99.90
28460;DHT22;32528;45.712;9.192;2022-09-27T02:20:29;14.50;99.90
28460;DHT22;32528;45.712;9.192;2022-09-27T02:24:57;14.40;99.90
28460;DHT22;32528;45.712;9.192;2022-09-27T02:27:03;14.40;99.90
28460;DHT22;32528;45.712;9.192;2022-09-27T02:29:07;14.50;99.90
28460;DHT22;32528;45.712;9.192;2022-09-27T02:31:17;14.40;99.90
28460;DHT22;32528;45.712;9.192;2022-09-27T02:33:18;14.50;99.90
28460;DHT22;32528;45.712;9.192;2022-09-27T02:35:27;14.50;99.90
28460;DHT22;32528;45.712;9.192;2022-09-27T02:37:29;14.50;99.90
28460;DHT22;32528;45.712;9.192;2022-09-27T02:39:30;14.40;99.90
28460;DHT22;32528;45.712;9.192;2022-09-27T02:41:39;14.40;99.90
28460;DHT22;32528;45.712;9.192;2022-09-27T02:43:41;14.50;99.90
28460;DHT22;32528;45.712;9.192;2022-09-27T02:45:51;14.40;99.90
28460;DHT22;32528;45.712;9.192;2022-09-27T02:53:09;14.30;99.90
28460;DHT22;32528;45.712;9.192;2022-09-27T02:55:20;14.20;99.90
28460;DHT22;32528;45.712;9.192;2022-09-27T02:57:40;14.20;99.90
28460;DHT22;32528;45.712;9.192;2022-09-27T03:06:33;14.10;99.90
28460;DHT22;32528;45.712;9.192;2022-09-27T03:08:35;14.10;99.90
28460;DHT22;32528;45.712;9.192;2022-09-27T03:10:37;14.10;99.90
28460;DHT22;32528;45.712;9.192;2022-09-27T03:12:37;14.10;99.90
28460;DHT22;32528;45.712;9.192;2022-09-27T03:14:38;14.10;99.90
28460;DHT22;32528;45.712;9.192;2022-09-27T03:16:56;14.00;99.90
28460;DHT22;32528;45.712;9.192;2022-09-27T03:19:20;14.00;99.90
28460;DHT22;32528;45.712;9.192;2022-09-27T03:21:47;14.00;99.90
28460;DHT22;32528;45.712;9.192;2022-09-27T03:23:47;14.10;99.90
28460;DHT22;32528;45.712;9.192;2022-09-27T03:25:48;14.00;99.90
28460;DHT22;32528;45.712;9.192;2022-09-27T03:27:49;14.10;99.90
28460;DHT22;32528;45.712;9.192;2022-09-27T03:29:50;14.20;99.90
28460;DHT22;32528;45.712;9.192;2022-09-27T03:31:51;14.10;99.90
28460;DHT22;32528;45.712;9.192;2022-09-27T03:34:15;14.20;99.90
28460;DHT22;32528;45.712;9.192;2022-09-27T03:36:15;14.20;99.90
28460;DHT22;32528;45.712;9.192;2022-09-27T03:38:16;14.20;99.90
28460;DHT22;32528;45.712;9.192;2022-09-27T03:40:17;14.20;99.90
28460;DHT22;32528;45.712;9.192;2022-09-27T03:42:17;14.20;99.90
28460;DHT22;32528;45.712;9.192;2022-09-27T03:44:22;14.30;99.90
28460;DHT22;32528;45.712;9.192;2022-09-27T03:46:23;14.40;99.90
28460;DHT22;32528;45.712;9.192;2022-09-27T03:48:23;14.30;99.90
28460;DHT22;32528;45.712;9.192;2022-09-27T03:50:24;14.40;99.90
28460;DHT22;32528;45.712;9.192;2022-09-27T03:52:25;14.40;99.90
28460;DHT22;32528;45.712;9.192;2022-09-27T03:54:26;14.40;99.90
28460;DHT22;32528;45.712;9.192;2022-09-27T03:56:27;14.40;99.90
28460;DHT22;32528;45.712;9.192;2022-09-27T03:58:28;14.40;99.90
28460;DHT22;32528;45.712;9.192;2022-09-27T04:00:28;14.40;99.90
28460;DHT22;32528;45.712;9.192;2022-09-27T04:02:32;14.40;99.90
28460;DHT22;32528;45.712;9.192;2022-09-27T04:04:52;14.50;99.90
28460;DHT22;32528;45.712;9.192;2022-09-27T04:06:56;14.40;99.90
28460;DHT22;32528;45.712;9.192;2022-09-27T04:08:58;14.30;99.90
28460;DHT22;32528;45.712;9.192;2022-09-27T04:11:08;14.30;99.90
28460;DHT22;32528;45.712;9.192;2022-09-27T04:13:09;14.20;99.90
28460;DHT22;32528;45.712;9.192;2022-09-27T04:15:16;14.20;99.90
28460;DHT22;32528;45.712;9.192;2022-09-27T04:17:23;14.10;99.90
28460;DHT22;32528;45.712;9.192;2022-09-27T04:19:50;14.10;99.90
28460;DHT22;32528;45.712;9.192;2022-09-27T04:21:52;14.10;99.90
28460;DHT22;32528;45.712;9.192;2022-09-27T04:23:53;14.00;99.90
28460;DHT22;32528;45.712;9.192;2022-09-27T04:25:56;14.00;99.90
28460;DHT22;32528;45.712;9.192;2022-09-27T04:28:20;13.90;99.90
28460;DHT22;32528;45.712;9.192;2022-09-27T04:30:21;13.90;99.90
28460;DHT22;32528;45.712;9.192;2022-09-27T04:32:40;13.80;99.90
28460;DHT22;32528;45.712;9.192;2022-09-27T04:35:16;13.80;99.90
28460;DHT22;32528;45.712;9.192;2022-09-27T04:37:35;13.80;99.90
28460;DHT22;32528;45.712;9.192;2022-09-27T04:39:37;13.80;99.90
28460;DHT22;32528;45.712;9.192;2022-09-27T04:41:39;13.80;99.90
28460;DHT22;32528;45.712;9.192;2022-09-27T04:43:40;13.80;99.90
28460;DHT22;32528;45.712;9.192;2022-09-27T04:45:41;13.70;99.90
28460;DHT22;32528;45.712;9.192;2022-09-27T04:47:46;13.60;99.90
28460;DHT22;32528;45.712;9.192;2022-09-27T04:49:47;13.50;99.90
28460;DHT22;32528;45.712;9.192;2022-09-27T04:51:48;13.50;99.90
28460;DHT22;32528;45.712;9.192;2022-09-27T04:53:49;13.60;99.90
28460;DHT22;32528;45.712;9.192;2022-09-27T04:55:51;13.60;99.90
28460;DHT22;32528;45.712;9.192;2022-09-27T04:57:52;13.70;99.90
28460;DHT22;32528;45.712;9.192;2022-09-27T04:59:53;13.70;99.90
28460;DHT22;32528;45.712;9.192;2022-09-27T05:01:54;13.80;99.90
28460;DHT22;32528;45.712;9.192;2022-09-27T05:04:24;13.90;99.90
28460;DHT22;32528;45.712;9.192;2022-09-27T05:06:26;13.90;99.90
28460;DHT22;32528;45.712;9.192;2022-09-27T05:08:31;14.00;99.90
28460;DHT22;32528;45.712;9.192;2022-09-27T05:10:53;14.10;99.90
28460;DHT22;32528;45.712;9.192;2022-09-27T05:12:54;14.10;99.90
28460;DHT22;32528;45.712;9.192;2022-09-27T05:14:55;14.20;99.90
28460;DHT22;32528;45.712;9.192;2022-09-27T05:17:15;14.20;99.90
28460;DHT22;32528;45.712;9.192;2022-09-27T05:19:50;14.30;99.90
28460;DHT22;32528;45.712;9.192;2022-09-27T05:22:05;14.30;99.90
28460;DHT22;32528;45.712;9.192;2022-09-27T05:24:06;14.30;99.90
28460;DHT22;32528;45.712;9.192;2022-09-27T05:26:07;14.30;99.90
28460;DHT22;32528;45.712;9.192;2022-09-27T05:28:08;14.40;99.90
28460;DHT22;32528;45.712;9.192;2022-09-27T05:30:09;14.30;99.90
28460;DHT22;32528;45.712;9.192;2022-09-27T05:32:27;14.20;99.90
28460;DHT22;32528;45.712;9.192;2022-09-27T05:34:51;14.20;99.90
28460;DHT22;32528;45.712;9.192;2022-09-27T05:36:53;14.20;99.90
28460;DHT22;32528;45.712;9.192;2022-09-27T05:38:54;14.20;99.90
28460;DHT22;32528;45.712;9.192;2022-09-27T05:40:56;14.20;99.90
28460;DHT22;32528;45.712;9.192;2022-09-27T05:42:58;14.30;99.90
28460;DHT22;32528;45.712;9.192;2022-09-27T05:44:59;14.30;99.90
28460;DHT22;32528;45.712;9.192;2022-09-27T05:47:00;14.40;99.90
28460;DHT22;32528;45.712;9.192;2022-09-27T05:49:04;14.30;99.90
28460;DHT22;32528;45.712;9.192;2022-09-27T05:51:04;14.40;99.90
28460;DHT22;32528;45.712;9.192;2022-09-27T05:53:07;14.40;99.90
28460;DHT22;32528;45.712;9.192;2022-09-27T05:55:08;14.40;99.90
28460;DHT22;32528;45.712;9.192;2022-09-27T05:57:10;14.30;99.90
28460;DHT22;32528;45.712;9.192;2022-09-27T05:59:17;14.20;99.90
28460;DHT22;32528;45.712;9.192;2022-09-27T06:01:53;14.20;99.90
28460;DHT22;32528;45.712;9.192;2022-09-27T06:04:29;14.20;99.90
28460;DHT22;32528;45.712;9.192;2022-09-27T06:06:50;14.10;99.90
28460;DHT22;32528;45.712;9.192;2022-09-27T06:08:51;14.10;99.90
28460;DHT22;32528;45.712;9.192;2022-09-27T06:10:59;14.20;99.90
28460;DHT22;32528;45.712;9.192;2022-09-27T06:13:00;14.20;99.90
28460;DHT22;32528;45.712;9.192;2022-09-27T06:15:10;14.20;99.90
28460;DHT22;32528;45.712;9.192;2022-09-27T06:17:16;14.30;99.90
28460;DHT22;32528;45.712;9.192;2022-09-27T06:19:18;14.40;99.90
28460;DHT22;32528;45.712;9.192;2022-09-27T06:21:20;14.40;99.90
28460;DHT22;32528;45.712;9.192;2022-09-27T06:23:27;14.50;99.90
28460;DHT22;32528;45.712;9.192;2022-09-27T06:25:30;14.50;99.90
28460;DHT22;32528;45.712;9.192;2022-09-27T06:27:50;14.60;99.90
28460;DHT22;32528;45.712;9.192;2022-09-27T06:30:03;14.60;99.90
28460;DHT22;32528;45.712;9.192;2022-09-27T06:32:18;14.60;99.90
28460;DHT22;32528;45.712;9.192;2022-09-27T06:34:30;14.70;99.90
28460;DHT22;32528;45.712;9.192;2022-09-27T06:36:32;14.70;99.90
28460;DHT22;32528;45.712;9.192;2022-09-27T06:38:33;14.70;99.90
28460;DHT22;32528;45.712;9.192;2022-09-27T06:40:52;14.80;99.90
28460;DHT22;32528;45.712;9.192;2022-09-27T06:43:05;14.90;99.90
28460;DHT22;32528;45.712;9.192;2022-09-27T06:45:29;15.10;99.90
28460;DHT22;32528;45.712;9.192;2022-09-27T06:47:49;15.30;99.90
28460;DHT22;32528;45.712;9.192;2022-09-27T06:50:10;15.40;99.90
28460;DHT22;32528;45.712;9.192;2022-09-27T06:52:12;15.50;99.90
28460;DHT22;32528;45.712;9.192;2022-09-27T06:54:15;15.60;99.90
28460;DHT22;32528;45.712;9.192;2022-09-27T06:56:17;15.70;99.90
28460;DHT22;32528;45.712;9.192;2022-09-27T06:58:27;15.80;99.90
28460;DHT22;32528;45.712;9.192;2022-09-27T07:01:13;15.90;99.90
28460;DHT22;32528;45.712;9.192;2022-09-27T07:03:32;16.10;99.90
28460;DHT22;32528;45.712;9.192;2022-09-27T07:05:57;16.20;99.90
28460;DHT22;32528;45.712;9.192;2022-09-27T07:08:13;16.30;99.90
28460;DHT22;32528;45.712;9.192;2022-09-27T07:10:15;16.50;99.90
28460;DHT22;32528;45.712;9.192;2022-09-27T07:12:17;16.60;99.90
28460;DHT22;32528;45.712;9.192;2022-09-27T07:14:18;16.70;99.90
28460;DHT22;32528;45.712;9.192;2022-09-27T07:16:19;16.80;99.90
28460;DHT22;32528;45.712;9.192;2022-09-27T07:18:19;16.90;99.90
28460;DHT22;32528;45.712;9.192;2022-09-27T07:20:20;16.80;99.90
28460;DHT22;32528;45.712;9.192;2022-09-27T07:22:21;16.80;99.90
28460;DHT22;32528;45.712;9.192;2022-09-27T07:24:28;16.80;99.90
28460;DHT22;32528;45.712;9.192;2022-09-27T07:26:30;16.70;99.90
28460;DHT22;32528;45.712;9.192;2022-09-27T07:28:32;16.70;99.90
28460;DHT22;32528;45.712;9.192;2022-09-27T07:30:33;16.70;99.90
28460;DHT22;32528;45.712;9.192;2022-09-27T07:32:35;16.70;99.90
28460;DHT22;32528;45.712;9.192;2022-09-27T07:34:36;16.60;99.90
28460;DHT22;32528;45.712;9.192;2022-09-27T07:36:37;16.60;99.90
28460;DHT22;32528;45.712;9.192;2022-09-27T07:38:38;16.70;99.90
28460;DHT22;32528;45.712;9.192;2022-09-27T07:40:39;16.70;99.90
28460;DHT22;32528;45.712;9.192;2022-09-27T07:42:40;16.80;99.90
28460;DHT22;32528;45.712;9.192;2022-09-27T07:44:41;16.80;99.90
28460;DHT22;32528;45.712;9.192;2022-09-27T07:46:59;16.80;99.90
28460;DHT22;32528;45.712;9.192;2022-09-27T07:49:23;16.80;99.90
28460;DHT22;32528;45.712;9.192;2022-09-27T07:51:23;16.80;99.90
28460;DHT22;32528;45.712;9.192;2022-09-27T07:53:37;16.90;99.90
28460;DHT22;32528;45.712;9.192;2022-09-27T07:56:00;17.10;99.90
28460;DHT22;32528;45.712;9.192;2022-09-27T07:58:03;17.30;99.90
28460;DHT22;32528;45.712;9.192;2022-09-27T08:00:05;17.30;99.90
28460;DHT22;32528;45.712;9.192;2022-09-27T08:02:15;17.60;99.80
28460;DHT22;32528;45.712;9.192;2022-09-27T08:04:16;17.70;99.40
28460;DHT22;32528;45.712;9.192;2022-09-27T08:06:17;17.80;99.00
28460;DHT22;32528;45.712;9.192;2022-09-27T08:08:19;18.00;98.90
28460;DHT22;32528;45.712;9.192;2022-09-27T08:10:22;18.00;98.50
28460;DHT22;32528;45.712;9.192;2022-09-27T08:12:29;18.10;98.00
28460;DHT22;32528;45.712;9.192;2022-09-27T08:14:30;18.20;97.80
28460;DHT22;32528;45.712;9.192;2022-09-27T08:16:34;18.20;96.90
28460;DHT22;32528;45.712;9.192;2022-09-27T08:19:05;18.30;96.60
28460;DHT22;32528;45.712;9.192;2022-09-27T08:21:15;18.20;96.40
28460;DHT22;32528;45.712;9.192;2022-09-27T08:23:24;18.10;96.60
28460;DHT22;32528;45.712;9.192;2022-09-27T08:25:38;18.00;96.40
28460;DHT22;32528;45.712;9.192;2022-09-27T08:27:59;17.90;96.40
28460;DHT22;32528;45.712;9.192;2022-09-27T08:30:09;17.90;96.60
28460;DHT22;32528;45.712;9.192;2022-09-27T08:32:10;17.80;96.90
28460;DHT22;32528;45.712;9.192;2022-09-27T08:34:11;17.80;96.80
28460;DHT22;32528;45.712;9.192;2022-09-27T08:36:11;18.00;96.90
28460;DHT22;32528;45.712;9.192;2022-09-27T08:38:12;18.00;96.50
28460;DHT22;32528;45.712;9.192;2022-09-27T08:40:14;18.00;96.10
28460;DHT22;32528;45.712;9.192;2022-09-27T08:42:26;18.20;95.70
28460;DHT22;32528;45.712;9.192;2022-09-27T08:44:37;18.40;96.00
28460;DHT22;32528;45.712;9.192;2022-09-27T08:49:17;18.50;94.70
28460;DHT22;32528;45.712;9.192;2022-09-27T08:51:20;18.60;94.60
28460;DHT22;32528;45.712;9.192;2022-09-27T08:53:24;18.70;94.70
28460;DHT22;32528;45.712;9.192;2022-09-27T08:57:54;18.60;94.50
28460;DHT22;32528;45.712;9.192;2022-09-27T09:00:03;18.60;93.60
28460;DHT22;32528;45.712;9.192;2022-09-27T09:02:10;18.70;94.20
28460;DHT22;32528;45.712;9.192;2022-09-27T09:04:24;18.70;93.80
28460;DHT22;32528;45.712;9.192;2022-09-27T09:06:27;18.80;94.30
28460;DHT22;32528;45.712;9.192;2022-09-27T09:10:38;19.00;93.70
28460;DHT22;32528;45.712;9.192;2022-09-27T09:13:04;19.10;93.60
28460;DHT22;32528;45.712;9.192;2022-09-27T09:19:52;18.80;93.40
28460;DHT22;32528;45.712;9.192;2022-09-27T09:24:26;18.70;93.70
28460;DHT22;32528;45.712;9.192;2022-09-27T09:26:38;18.80;93.60
28460;DHT22;32528;45.712;9.192;2022-09-27T09:28:49;18.90;93.60
28460;DHT22;32528;45.712;9.192;2022-09-27T09:35:05;19.00;94.00
28460;DHT22;32528;45.712;9.192;2022-09-27T09:37:20;19.00;93.40
28460;DHT22;32528;45.712;9.192;2022-09-27T09:41:25;19.10;93.80
28460;DHT22;32528;45.712;9.192;2022-09-27T09:43:32;19.10;93.50
28460;DHT22;32528;45.712;9.192;2022-09-27T09:45:37;19.10;93.70
28460;DHT22;32528;45.712;9.192;2022-09-27T09:47:43;19.00;93.70
28460;DHT22;32528;45.712;9.192;2022-09-27T09:49:46;19.00;94.00
28460;DHT22;32528;45.712;9.192;2022-09-27T09:51:50;19.10;93.70
28460;DHT22;32528;45.712;9.192;2022-09-27T09:53:56;19.20;93.60
28460;DHT22;32528;45.712;9.192;2022-09-27T09:56:07;19.30;93.90
28460;DHT22;32528;45.712;9.192;2022-09-27T10:00:26;19.30;92.90
28460;DHT22;32528;45.712;9.192;2022-09-27T10:02:34;19.40;93.30
28460;DHT22;32528;45.712;9.192;2022-09-27T10:04:42;19.40;93.10
28460;DHT22;32528;45.712;9.192;2022-09-27T10:06:42;19.40;92.90
28460;DHT22;32528;45.712;9.192;2022-09-27T10:08:43;19.50;92.90
28460;DHT22;32528;45.712;9.192;2022-09-27T10:10:55;19.60;92.40
28460;DHT22;32528;45.712;9.192;2022-09-27T10:12:58;19.50;92.60
28460;DHT22;32528;45.712;9.192;2022-09-27T10:15:05;19.60;92.50
28460;DHT22;32528;45.712;9.192;2022-09-27T10:17:09;19.70;92.40
28460;DHT22;32528;45.712;9.192;2022-09-27T10:19:10;19.80;92.00
28460;DHT22;32528;45.712;9.192;2022-09-27T10:21:18;19.80;91.90
28460;DHT22;32528;45.712;9.192;2022-09-27T10:23:21;19.80;91.60
28460;DHT22;32528;45.712;9.192;2022-09-27T10:25:53;19.80;91.70
28460;DHT22;32528;45.712;9.192;2022-09-27T10:28:41;19.80;91.50
28460;DHT22;32528;45.712;9.192;2022-09-27T10:30:43;19.90;91.00
28460;DHT22;32528;45.712;9.192;2022-09-27T10:32:59;19.90;90.20
28460;DHT22;32528;45.712;9.192;2022-09-27T10:37:35;19.90;89.90
28460;DHT22;32528;45.712;9.192;2022-09-27T10:39:42;19.90;89.70
28460;DHT22;32528;45.712;9.192;2022-09-27T10:41:44;20.10;90.20
28460;DHT22;32528;45.712;9.192;2022-09-27T10:46:26;20.30;89.30
28460;DHT22;32528;45.712;9.192;2022-09-27T10:48:36;20.50;89.20
28460;DHT22;32528;45.712;9.192;2022-09-27T10:50:38;20.50;87.60
28460;DHT22;32528;45.712;9.192;2022-09-27T10:53:11;20.40;87.40
28460;DHT22;32528;45.712;9.192;2022-09-27T10:57:23;20.30;87.10
28460;DHT22;32528;45.712;9.192;2022-09-27T10:59:24;20.50;87.90
28460;DHT22;32528;45.712;9.192;2022-09-27T11:01:44;20.50;87.20
28460;DHT22;32528;45.712;9.192;2022-09-27T11:04:05;20.60;86.50
28460;DHT22;32528;45.712;9.192;2022-09-27T11:06:18;20.70;86.80
28460;DHT22;32528;45.712;9.192;2022-09-27T11:08:19;20.80;87.20
28460;DHT22;32528;45.712;9.192;2022-09-27T11:10:41;20.90;86.20
28460;DHT22;32528;45.712;9.192;2022-09-27T11:12:42;21.00;85.50
28460;DHT22;32528;45.712;9.192;2022-09-27T11:14:50;21.00;85.10
28460;DHT22;32528;45.712;9.192;2022-09-27T11:23:45;20.80;80.60
28460;DHT22;32528;45.712;9.192;2022-09-27T11:30:09;20.90;82.10
28460;DHT22;32528;45.712;9.192;2022-09-27T11:32:24;21.00;83.00
28460;DHT22;32528;45.712;9.192;2022-09-27T11:38:46;21.10;80.60
28460;DHT22;32528;45.712;9.192;2022-09-27T11:41:00;21.10;78.10
28460;DHT22;32528;45.712;9.192;2022-09-27T11:43:27;21.10;78.00
28460;DHT22;32528;45.712;9.192;2022-09-27T11:45:45;21.20;80.10
28460;DHT22;32528;45.712;9.192;2022-09-27T11:47:54;21.20;82.00
28460;DHT22;32528;45.712;9.192;2022-09-27T11:58:48;21.40;80.10
28460;DHT22;32528;45.712;9.192;2022-09-27T12:09:11;21.70;78.10
28460;DHT22;32528;45.712;9.192;2022-09-27T12:13:18;21.80;75.20
28460;DHT22;32528;45.712;9.192;2022-09-27T12:15:31;21.80;76.10
28460;DHT22;32528;45.712;9.192;2022-09-27T12:17:37;21.80;74.70
28460;DHT22;32528;45.712;9.192;2022-09-27T12:19:40;21.90;76.30
28460;DHT22;32528;45.712;9.192;2022-09-27T12:21:51;21.90;74.40
28460;DHT22;32528;45.712;9.192;2022-09-27T12:23:53;22.10;74.80
28460;DHT22;32528;45.712;9.192;2022-09-27T12:26:10;22.20;74.20
28460;DHT22;32528;45.712;9.192;2022-09-27T12:30:15;22.10;73.60
28460;DHT22;32528;45.712;9.192;2022-09-27T12:36:31;22.00;72.20
28460;DHT22;32528;45.712;9.192;2022-09-27T12:38:38;22.10;72.60
28460;DHT22;32528;45.712;9.192;2022-09-27T12:40:41;22.20;70.90
28460;DHT22;32528;45.712;9.192;2022-09-27T12:44:58;22.20;64.90
28460;DHT22;32528;45.712;9.192;2022-09-27T12:51:10;22.40;63.80
28460;DHT22;32528;45.712;9.192;2022-09-27T12:53:13;22.50;64.70
28460;DHT22;32528;45.712;9.192;2022-09-27T13:08:26;22.80;56.70
28460;DHT22;32528;45.712;9.192;2022-09-27T13:11:25;22.80;56.70
28460;DHT22;32528;45.712;9.192;2022-09-27T13:12:59;22.80;55.10
28460;DHT22;32528;45.712;9.192;2022-09-27T13:15:02;22.90;54.00
28460;DHT22;32528;45.712;9.192;2022-09-27T13:17:04;22.80;53.80
28460;DHT22;32528;45.712;9.192;2022-09-27T13:19:15;22.80;52.60
28460;DHT22;32528;45.712;9.192;2022-09-27T13:31:06;23.10;55.20
28460;DHT22;32528;45.712;9.192;2022-09-27T13:37:38;23.00;53.20
28460;DHT22;32528;45.712;9.192;2022-09-27T13:39:43;23.00;52.40
28460;DHT22;32528;45.712;9.192;2022-09-27T13:42:30;23.00;52.30
28460;DHT22;32528;45.712;9.192;2022-09-27T13:44:42;23.10;52.50
28460;DHT22;32528;45.712;9.192;2022-09-27T13:46:48;23.00;53.50
28460;DHT22;32528;45.712;9.192;2022-09-27T13:48:56;23.20;53.70
28460;DHT22;32528;45.712;9.192;2022-09-27T13:51:32;23.10;52.30
28460;DHT22;32528;45.712;9.192;2022-09-27T13:53:32;23.20;51.00
28460;DHT22;32528;45.712;9.192;2022-09-27T13:55:38;23.20;49.60
28460;DHT22;32528;45.712;9.192;2022-09-27T13:59:45;23.20;52.60
28460;DHT22;32528;45.712;9.192;2022-09-27T14:04:25;23.40;50.60
28460;DHT22;32528;45.712;9.192;2022-09-27T14:06:33;23.70;52.10
28460;DHT22;32528;45.712;9.192;2022-09-27T14:08:36;24.20;53.30
28460;DHT22;32528;45.712;9.192;2022-09-27T14:10:38;24.80;51.90
28460;DHT22;32528;45.712;9.192;2022-09-27T14:12:42;25.20;51.10
28460;DHT22;32528;45.712;9.192;2022-09-27T14:14:45;25.30;48.90
28460;DHT22;32528;45.712;9.192;2022-09-27T14:16:49;25.20;48.30
28460;DHT22;32528;45.712;9.192;2022-09-27T14:18:52;25.10;48.30
28460;DHT22;32528;45.712;9.192;2022-09-27T14:21:10;25.00;48.30
28460;DHT22;32528;45.712;9.192;2022-09-27T14:23:28;25.00;47.40
28460;DHT22;32528;45.712;9.192;2022-09-27T14:25:30;24.90;45.50
28460;DHT22;32528;45.712;9.192;2022-09-27T14:27:35;24.80;48.00
28460;DHT22;32528;45.712;9.192;2022-09-27T14:29:43;24.60;49.40
28460;DHT22;32528;45.712;9.192;2022-09-27T14:32:04;24.60;49.10
28460;DHT22;32528;45.712;9.192;2022-09-27T14:34:17;24.50;50.10
28460;DHT22;32528;45.712;9.192;2022-09-27T14:36:39;24.20;51.20
28460;DHT22;32528;45.712;9.192;2022-09-27T14:39:23;24.10;51.60
28460;DHT22;32528;45.712;9.192;2022-09-27T14:41:26;24.00;51.90
28460;DHT22;32528;45.712;9.192;2022-09-27T14:43:34;23.90;52.20
28460;DHT22;32528;45.712;9.192;2022-09-27T14:45:36;23.80;51.40
28460;DHT22;32528;45.712;9.192;2022-09-27T14:47:43;23.80;53.00
28460;DHT22;32528;45.712;9.192;2022-09-27T14:49:47;23.70;51.40
28460;DHT22;32528;45.712;9.192;2022-09-27T14:51:52;23.60;51.90
28460;DHT22;32528;45.712;9.192;2022-09-27T14:53:54;23.60;51.10
28460;DHT22;32528;45.712;9.192;2022-09-27T14:56:00;23.60;51.90
28460;DHT22;32528;45.712;9.192;2022-09-27T14:58:01;23.50;51.10
28460;DHT22;32528;45.712;9.192;2022-09-27T15:00:17;23.40;52.00
28460;DHT22;32528;45.712;9.192;2022-09-27T15:02:20;23.40;52.20
28460;DHT22;32528;45.712;9.192;2022-09-27T15:04:22;23.40;51.00
28460;DHT22;32528;45.712;9.192;2022-09-27T15:06:23;23.40;51.30
28460;DHT22;32528;45.712;9.192;2022-09-27T15:08:25;23.20;51.80
28460;DHT22;32528;45.712;9.192;2022-09-27T15:10:27;23.20;52.40
28460;DHT22;32528;45.712;9.192;2022-09-27T15:12:30;23.10;51.90
28460;DHT22;32528;45.712;9.192;2022-09-27T15:14:31;23.10;51.90
28460;DHT22;32528;45.712;9.192;2022-09-27T15:16:33;23.10;52.20
28460;DHT22;32528;45.712;9.192;2022-09-27T15:20:37;23.30;51.10
28460;DHT22;32528;45.712;9.192;2022-09-27T15:22:51;23.40;51.10
28460;DHT22;32528;45.712;9.192;2022-09-27T15:24:52;23.70;51.50
28460;DHT22;32528;45.712;9.192;2022-09-27T15:26:53;24.60;50.90
28460;DHT22;32528;45.712;9.192;2022-09-27T15:28:53;26.90;48.70
28460;DHT22;32528;45.712;9.192;2022-09-27T15:30:55;28.90;45.80
28460;DHT22;32528;45.712;9.192;2022-09-27T15:32:56;31.00;43.60
28460;DHT22;32528;45.712;9.192;2022-09-27T15:34:57;32.40;41.30
28460;DHT22;32528;45.712;9.192;2022-09-27T15:37:05;33.80;39.80
28460;DHT22;32528;45.712;9.192;2022-09-27T15:39:06;34.60;37.20
28460;DHT22;32528;45.712;9.192;2022-09-27T15:41:18;35.90;36.70
28460;DHT22;32528;45.712;9.192;2022-09-27T15:43:21;36.70;35.20
28460;DHT22;32528;45.712;9.192;2022-09-27T15:45:29;36.60;34.50
28460;DHT22;32528;45.712;9.192;2022-09-27T15:49:31;39.20;33.40
28460;DHT22;32528;45.712;9.192;2022-09-27T15:51:37;39.70;32.00
28460;DHT22;32528;45.712;9.192;2022-09-27T15:53:40;38.60;31.50
28460;DHT22;32528;45.712;9.192;2022-09-27T15:55:42;37.60;32.10
28460;DHT22;32528;45.712;9.192;2022-09-27T15:57:48;35.80;33.70